sensor_id;sensor_type;location;lat;lon;timestamp;P1;durP1;ratioP1;P2;durP2;ratioP2
17763;SDS011;22245;52.832;13.816;2022-10-16T00:02:30;6.30;;;3.50;;
17763;SDS011;22245;52.832;13.816;2022-10-16T00:05:53;4.55;;;3.50;;
17763;SDS011;22245;52.832;13.816;2022-10-16T00:09:15;5.55;;;3.28;;
17763;SDS011;22245;52.832;13.816;2022-10-16T00:12:36;6.95;;;3.53;;
17763;SDS011;22245;52.832;13.816;2022-10-16T00:15:58;3.95;;;3.55;;
17763;SDS011;22245;52.832;13.816;2022-10-16T00:19:20;8.32;;;3.70;;
17763;SDS011;22245;52.832;13.816;2022-10-16T00:22:44;5.15;;;3.22;;
17763;SDS011;22245;52.832;13.816;2022-10-16T00:26:06;5.90;;;3.45;;
17763;SDS011;22245;52.832;13.816;2022-10-16T00:29:29;5.53;;;3.50;;
17763;SDS011;22245;52.832;13.816;2022-10-16T00:32:50;3.67;;;3.25;;
17763;SDS011;22245;52.832;13.816;2022-10-16T00:36:14;4.47;;;3.38;;
17763;SDS011;22245;52.832;13.816;2022-10-16T00:39:38;3.75;;;3.20;;
17763;SDS011;22245;52.832;13.816;2022-10-16T00:42:59;7.55;;;3.63;;
17763;SDS011;22245;52.832;13.816;2022-10-16T00:46:22;5.10;;;3.58;;
17763;SDS011;22245;52.832;13.816;2022-10-16T00:49:46;5.10;;;3.15;;
17763;SDS011;22245;52.832;13.816;2022-10-16T00:53:10;5.75;;;3.20;;
17763;SDS011;22245;52.832;13.816;2022-10-16T00:56:34;4.90;;;3.35;;
17763;SDS011;22245;52.832;13.816;2022-10-16T00:59:55;4.50;;;3.50;;
17763;SDS011;22245;52.832;13.816;2022-10-16T01:03:23;3.97;;;3.33;;
17763;SDS011;22245;52.832;13.816;2022-10-16T01:06:49;3.63;;;3.28;;
17763;SDS011;22245;52.832;13.816;2022-10-16T01:10:22;4.55;;;3.30;;
17763;SDS011;22245;52.832;13.816;2022-10-16T01:13:54;3.63;;;3.10;;
17763;SDS011;22245;52.832;13.816;2022-10-16T01:17:19;4.35;;;3.00;;
17763;SDS011;22245;52.832;13.816;2022-10-16T01:20:45;4.65;;;3.25;;
17763;SDS011;22245;52.832;13.816;2022-10-16T01:24:12;3.40;;;2.95;;
17763;SDS011;22245;52.832;13.816;2022-10-16T01:27:42;5.32;;;2.70;;
17763;SDS011;22245;52.832;13.816;2022-10-16T01:31:08;4.38;;;3.53;;
17763;SDS011;22245;52.832;13.816;2022-10-16T01:34:33;3.55;;;3.25;;
17763;SDS011;22245;52.832;13.816;2022-10-16T01:37:59;5.82;;;3.45;;
17763;SDS011;22245;52.832;13.816;2022-10-16T01:41:26;4.90;;;3.00;;
17763;SDS011;22245;52.832;13.816;2022-10-16T01:44:55;5.80;;;3.08;;
17763;SDS011;22245;52.832;13.816;2022-10-16T01:48:20;6.88;;;3.08;;
17763;SDS011;22245;52.832;13.816;2022-10-16T01:51:45;4.70;;;2.88;;
17763;SDS011;22245;52.832;13.816;2022-10-16T01:55:11;3.45;;;2.65;;
17763;SDS011;22245;52.832;13.816;2022-10-16T01:58:36;6.43;;;2.97;;
17763;SDS011;22245;52.832;13.816;2022-10-16T02:02:03;4.30;;;2.80;;
17763;SDS011;22245;52.832;13.816;2022-10-16T02:05:30;5.78;;;2.88;;
17763;SDS011;22245;52.832;13.816;2022-10-16T02:08:55;4.63;;;3.17;;
17763;SDS011;22245;52.832;13.816;2022-10-16T02:12:19;9.90;;;3.13;;
17763;SDS011;22245;52.832;13.816;2022-10-16T02:15:47;5.10;;;3.00;;
17763;SDS011;22245;52.832;13.816;2022-10-16T02:19:14;3.78;;;2.88;;
17763;SDS011;22245;52.832;13.816;2022-10-16T02:22:39;4.32;;;2.47;;
17763;SDS011;22245;52.832;13.816;2022-10-16T02:26:04;3.95;;;2.60;;
17763;SDS011;22245;52.832;13.816;2022-10-16T02:29:29;3.60;;;2.47;;
17763;SDS011;22245;52.832;13.816;2022-10-16T02:32:53;3.25;;;2.72;;
17763;SDS011;22245;52.832;13.816;2022-10-16T02:36:16;3.13;;;2.35;;
17763;SDS011;22245;52.832;13.816;2022-10-16T02:39:38;12.48;;;3.38;;
17763;SDS011;22245;52.832;13.816;2022-10-16T02:43:02;4.07;;;2.60;;
17763;SDS011;22245;52.832;13.816;2022-10-16T02:46:25;2.60;;;2.40;;
17763;SDS011;22245;52.832;13.816;2022-10-16T02:49:47;4.15;;;2.55;;
17763;SDS011;22245;52.832;13.816;2022-10-16T02:53:09;4.45;;;2.40;;
17763;SDS011;22245;52.832;13.816;2022-10-16T02:56:32;4.97;;;2.55;;
17763;SDS011;22245;52.832;13.816;2022-10-16T02:59:53;3.00;;;2.30;;
17763;SDS011;22245;52.832;13.816;2022-10-16T03:03:15;3.50;;;2.30;;
17763;SDS011;22245;52.832;13.816;2022-10-16T03:06:36;7.72;;;2.50;;
17763;SDS011;22245;52.832;13.816;2022-10-16T03:09:59;2.53;;;2.20;;
17763;SDS011;22245;52.832;13.816;2022-10-16T03:13:21;3.22;;;2.25;;
17763;SDS011;22245;52.832;13.816;2022-10-16T03:16:42;4.05;;;2.60;;
17763;SDS011;22245;52.832;13.816;2022-10-16T03:20:03;3.42;;;2.22;;
17763;SDS011;22245;52.832;13.816;2022-10-16T03:23:25;3.85;;;2.30;;
17763;SDS011;22245;52.832;13.816;2022-10-16T03:26:48;2.88;;;2.17;;
17763;SDS011;22245;52.832;13.816;2022-10-16T03:30:10;5.57;;;2.65;;
17763;SDS011;22245;52.832;13.816;2022-10-16T03:33:32;4.68;;;2.40;;
17763;SDS011;22245;52.832;13.816;2022-10-16T03:36:53;4.13;;;2.72;;
17763;SDS011;22245;52.832;13.816;2022-10-16T03:40:15;2.63;;;2.40;;
17763;SDS011;22245;52.832;13.816;2022-10-16T03:43:38;7.15;;;2.30;;
17763;SDS011;22245;52.832;13.816;2022-10-16T03:47:00;3.10;;;2.47;;
17763;SDS011;22245;52.832;13.816;2022-10-16T03:50:22;4.40;;;2.50;;
17763;SDS011;22245;52.832;13.816;2022-10-16T03:53:43;7.85;;;2.38;;
17763;SDS011;22245;52.832;13.816;2022-10-16T03:57:05;3.33;;;2.20;;
17763;SDS011;22245;52.832;13.816;2022-10-16T04:00:27;3.35;;;2.28;;
17763;SDS011;22245;52.832;13.816;2022-10-16T04:03:49;5.22;;;2.40;;
17763;SDS011;22245;52.832;13.816;2022-10-16T04:07:10;10.45;;;2.40;;
17763;SDS011;22245;52.832;13.816;2022-10-16T04:10:32;3.53;;;2.20;;
17763;SDS011;22245;52.832;13.816;2022-10-16T04:13:53;3.65;;;2.13;;
17763;SDS011;22245;52.832;13.816;2022-10-16T04:17:16;6.18;;;2.75;;
17763;SDS011;22245;52.832;13.816;2022-10-16T04:20:38;4.07;;;2.47;;
17763;SDS011;22245;52.832;13.816;2022-10-16T04:23:59;3.13;;;2.30;;
17763;SDS011;22245;52.832;13.816;2022-10-16T04:27:21;5.80;;;2.50;;
17763;SDS011;22245;52.832;13.816;2022-10-16T04:30:43;4.97;;;2.30;;
17763;SDS011;22245;52.832;13.816;2022-10-16T04:34:05;2.50;;;1.85;;
17763;SDS011;22245;52.832;13.816;2022-10-16T04:37:27;3.78;;;2.00;;
17763;SDS011;22245;52.832;13.816;2022-10-16T04:40:49;3.13;;;2.00;;
17763;SDS011;22245;52.832;13.816;2022-10-16T04:44:10;3.90;;;1.77;;
17763;SDS011;22245;52.832;13.816;2022-10-16T04:47:32;3.20;;;1.70;;
17763;SDS011;22245;52.832;13.816;2022-10-16T04:50:54;2.97;;;2.17;;
17763;SDS011;22245;52.832;13.816;2022-10-16T04:54:16;4.85;;;1.90;;
17763;SDS011;22245;52.832;13.816;2022-10-16T04:57:38;3.50;;;1.90;;
17763;SDS011;22245;52.832;13.816;2022-10-16T05:00:59;4.15;;;2.10;;
17763;SDS011;22245;52.832;13.816;2022-10-16T05:04:20;4.55;;;1.98;;
17763;SDS011;22245;52.832;13.816;2022-10-16T05:07:43;3.55;;;1.90;;
17763;SDS011;22245;52.832;13.816;2022-10-16T05:11:05;4.88;;;2.10;;
17763;SDS011;22245;52.832;13.816;2022-10-16T05:14:27;3.22;;;1.88;;
17763;SDS011;22245;52.832;13.816;2022-10-16T05:17:51;2.28;;;2.05;;
17763;SDS011;22245;52.832;13.816;2022-10-16T05:21:13;3.38;;;2.00;;
17763;SDS011;22245;52.832;13.816;2022-10-16T05:24:37;3.28;;;2.00;;
17763;SDS011;22245;52.832;13.816;2022-10-16T05:27:59;5.22;;;1.92;;
17763;SDS011;22245;52.832;13.816;2022-10-16T05:31:20;5.20;;;2.30;;
17763;SDS011;22245;52.832;13.816;2022-10-16T05:34:42;2.92;;;2.13;;
17763;SDS011;22245;52.832;13.816;2022-10-16T05:38:04;3.67;;;2.30;;
17763;SDS011;22245;52.832;13.816;2022-10-16T05:41:27;6.28;;;2.25;;
17763;SDS011;22245;52.832;13.816;2022-10-16T05:44:48;3.55;;;2.25;;
17763;SDS011;22245;52.832;13.816;2022-10-16T05:48:10;6.22;;;2.30;;
17763;SDS011;22245;52.832;13.816;2022-10-16T05:51:32;2.80;;;2.40;;
17763;SDS011;22245;52.832;13.816;2022-10-16T05:54:53;9.23;;;2.45;;
17763;SDS011;22245;52.832;13.816;2022-10-16T05:58:16;4.53;;;2.60;;
17763;SDS011;22245;52.832;13.816;2022-10-16T06:01:38;2.90;;;2.38;;
17763;SDS011;22245;52.832;13.816;2022-10-16T06:04:59;3.47;;;2.50;;
17763;SDS011;22245;52.832;13.816;2022-10-16T06:08:21;3.28;;;2.58;;
17763;SDS011;22245;52.832;13.816;2022-10-16T06:11:44;3.22;;;2.50;;
17763;SDS011;22245;52.832;13.816;2022-10-16T06:15:07;3.47;;;2.60;;
17763;SDS011;22245;52.832;13.816;2022-10-16T06:18:29;3.42;;;2.50;;
17763;SDS011;22245;52.832;13.816;2022-10-16T06:21:51;3.03;;;2.42;;
17763;SDS011;22245;52.832;13.816;2022-10-16T06:25:12;4.60;;;2.70;;
17763;SDS011;22245;52.832;13.816;2022-10-16T06:28:34;2.70;;;2.33;;
17763;SDS011;22245;52.832;13.816;2022-10-16T06:31:57;4.63;;;3.15;;
17763;SDS011;22245;52.832;13.816;2022-10-16T06:35:18;6.25;;;4.15;;
17763;SDS011;22245;52.832;13.816;2022-10-16T06:38:40;4.65;;;3.00;;
17763;SDS011;22245;52.832;13.816;2022-10-16T06:42:02;6.95;;;4.88;;
17763;SDS011;22245;52.832;13.816;2022-10-16T06:45:28;3.78;;;2.83;;
17763;SDS011;22245;52.832;13.816;2022-10-16T06:48:51;2.90;;;2.47;;
17763;SDS011;22245;52.832;13.816;2022-10-16T06:52:13;4.50;;;2.88;;
17763;SDS011;22245;52.832;13.816;2022-10-16T06:55:35;6.28;;;3.05;;
17763;SDS011;22245;52.832;13.816;2022-10-16T06:58:57;6.30;;;2.70;;
17763;SDS011;22245;52.832;13.816;2022-10-16T07:02:18;3.08;;;2.55;;
17763;SDS011;22245;52.832;13.816;2022-10-16T07:05:41;3.53;;;2.20;;
17763;SDS011;22245;52.832;13.816;2022-10-16T07:09:04;2.97;;;2.40;;
17763;SDS011;22245;52.832;13.816;2022-10-16T07:12:27;5.05;;;2.42;;
17763;SDS011;22245;52.832;13.816;2022-10-16T07:15:49;3.80;;;2.40;;
17763;SDS011;22245;52.832;13.816;2022-10-16T07:19:10;4.03;;;2.60;;
17763;SDS011;22245;52.832;13.816;2022-10-16T07:22:35;2.95;;;2.35;;
17763;SDS011;22245;52.832;13.816;2022-10-16T07:25:57;5.00;;;2.78;;
17763;SDS011;22245;52.832;13.816;2022-10-16T07:29:19;3.00;;;2.28;;
17763;SDS011;22245;52.832;13.816;2022-10-16T07:32:42;5.40;;;4.88;;
17763;SDS011;22245;52.832;13.816;2022-10-16T07:36:04;4.07;;;3.65;;
17763;SDS011;22245;52.832;13.816;2022-10-16T07:39:32;4.53;;;3.03;;
17763;SDS011;22245;52.832;13.816;2022-10-16T07:42:53;3.80;;;3.22;;
17763;SDS011;22245;52.832;13.816;2022-10-16T07:46:16;4.97;;;2.67;;
17763;SDS011;22245;52.832;13.816;2022-10-16T07:49:39;3.83;;;2.78;;
17763;SDS011;22245;52.832;13.816;2022-10-16T07:53:00;2.72;;;2.50;;
17763;SDS011;22245;52.832;13.816;2022-10-16T07:56:24;4.15;;;2.15;;
17763;SDS011;22245;52.832;13.816;2022-10-16T07:59:46;4.28;;;2.10;;
17763;SDS011;22245;52.832;13.816;2022-10-16T08:03:07;3.28;;;2.35;;
17763;SDS011;22245;52.832;13.816;2022-10-16T08:06:29;3.50;;;2.10;;
17763;SDS011;22245;52.832;13.816;2022-10-16T08:09:56;3.08;;;2.20;;
17763;SDS011;22245;52.832;13.816;2022-10-16T08:13:20;2.88;;;2.17;;
17763;SDS011;22245;52.832;13.816;2022-10-16T08:16:41;3.42;;;2.30;;
17763;SDS011;22245;52.832;13.816;2022-10-16T08:20:03;2.67;;;2.25;;
17763;SDS011;22245;52.832;13.816;2022-10-16T08:23:24;4.45;;;2.03;;
17763;SDS011;22245;52.832;13.816;2022-10-16T08:26:47;3.05;;;2.10;;
17763;SDS011;22245;52.832;13.816;2022-10-16T08:30:10;4.35;;;2.38;;
17763;SDS011;22245;52.832;13.816;2022-10-16T08:33:32;5.05;;;2.30;;
17763;SDS011;22245;52.832;13.816;2022-10-16T08:36:54;2.20;;;2.00;;
17763;SDS011;22245;52.832;13.816;2022-10-16T08:40:17;3.28;;;2.20;;
17763;SDS011;22245;52.832;13.816;2022-10-16T08:43:43;2.97;;;2.15;;
17763;SDS011;22245;52.832;13.816;2022-10-16T08:47:21;1.80;;;1.65;;
17763;SDS011;22245;52.832;13.816;2022-10-16T08:50:46;3.72;;;2.00;;
17763;SDS011;22245;52.832;13.816;2022-10-16T08:54:14;7.75;;;2.17;;
17763;SDS011;22245;52.832;13.816;2022-10-16T08:57:46;4.68;;;2.50;;
17763;SDS011;22245;52.832;13.816;2022-10-16T09:01:10;6.93;;;4.50;;
17763;SDS011;22245;52.832;13.816;2022-10-16T09:04:44;2.80;;;2.08;;
17763;SDS011;22245;52.832;13.816;2022-10-16T09:08:17;4.70;;;2.00;;
17763;SDS011;22245;52.832;13.816;2022-10-16T09:11:51;4.85;;;3.30;;
17763;SDS011;22245;52.832;13.816;2022-10-16T09:15:19;6.25;;;2.55;;
17763;SDS011;22245;52.832;13.816;2022-10-16T09:18:52;1.83;;;1.67;;
17763;SDS011;22245;52.832;13.816;2022-10-16T09:22:21;3.25;;;1.80;;
17763;SDS011;22245;52.832;13.816;2022-10-16T09:25:48;3.17;;;1.88;;
17763;SDS011;22245;52.832;13.816;2022-10-16T09:29:13;2.60;;;1.98;;
17763;SDS011;22245;52.832;13.816;2022-10-16T09:32:36;2.58;;;1.60;;
17763;SDS011;22245;52.832;13.816;2022-10-16T09:36:00;5.22;;;1.70;;
17763;SDS011;22245;52.832;13.816;2022-10-16T09:39:26;4.68;;;1.98;;
17763;SDS011;22245;52.832;13.816;2022-10-16T09:42:48;7.55;;;1.85;;
17763;SDS011;22245;52.832;13.816;2022-10-16T09:46:19;2.33;;;2.00;;
17763;SDS011;22245;52.832;13.816;2022-10-16T09:49:52;3.47;;;2.00;;
17763;SDS011;22245;52.832;13.816;2022-10-16T09:53:14;1.92;;;1.65;;
17763;SDS011;22245;52.832;13.816;2022-10-16T09:56:39;3.08;;;2.10;;
17763;SDS011;22245;52.832;13.816;2022-10-16T10:00:04;4.25;;;2.20;;
17763;SDS011;22245;52.832;13.816;2022-10-16T10:03:34;5.53;;;2.97;;
17763;SDS011;22245;52.832;13.816;2022-10-16T10:06:57;6.75;;;2.47;;
17763;SDS011;22245;52.832;13.816;2022-10-16T10:10:20;2.58;;;2.17;;
17763;SDS011;22245;52.832;13.816;2022-10-16T10:13:44;3.30;;;2.50;;
17763;SDS011;22245;52.832;13.816;2022-10-16T10:17:14;4.82;;;2.67;;
17763;SDS011;22245;52.832;13.816;2022-10-16T10:20:38;3.33;;;2.30;;
17763;SDS011;22245;52.832;13.816;2022-10-16T10:24:00;5.15;;;2.30;;
17763;SDS011;22245;52.832;13.816;2022-10-16T10:27:23;4.47;;;2.38;;
17763;SDS011;22245;52.832;13.816;2022-10-16T10:30:54;3.95;;;2.15;;
17763;SDS011;22245;52.832;13.816;2022-10-16T10:34:25;2.28;;;2.08;;
17763;SDS011;22245;52.832;13.816;2022-10-16T10:38:00;2.92;;;2.20;;
17763;SDS011;22245;52.832;13.816;2022-10-16T10:41:36;3.65;;;2.10;;
17763;SDS011;22245;52.832;13.816;2022-10-16T10:45:26;4.97;;;2.10;;
17763;SDS011;22245;52.832;13.816;2022-10-16T10:48:54;3.00;;;1.83;;
17763;SDS011;22245;52.832;13.816;2022-10-16T10:52:30;3.72;;;2.33;;
17763;SDS011;22245;52.832;13.816;2022-10-16T10:56:00;3.33;;;2.00;;
17763;SDS011;22245;52.832;13.816;2022-10-16T11:03:28;2.45;;;1.80;;
17763;SDS011;22245;52.832;13.816;2022-10-16T11:07:09;3.83;;;2.00;;
17763;SDS011;22245;52.832;13.816;2022-10-16T11:10:42;2.58;;;1.80;;
17763;SDS011;22245;52.832;13.816;2022-10-16T11:14:10;3.30;;;1.73;;
17763;SDS011;22245;52.832;13.816;2022-10-16T11:17:39;3.95;;;2.00;;
17763;SDS011;22245;52.832;13.816;2022-10-16T11:21:05;2.00;;;1.80;;
17763;SDS011;22245;52.832;13.816;2022-10-16T11:24:34;3.08;;;1.55;;
17763;SDS011;22245;52.832;13.816;2022-10-16T11:28:03;3.30;;;1.95;;
17763;SDS011;22245;52.832;13.816;2022-10-16T11:31:34;2.05;;;1.70;;
17763;SDS011;22245;52.832;13.816;2022-10-16T11:35:00;3.25;;;1.77;;
17763;SDS011;22245;52.832;13.816;2022-10-16T11:38:29;2.50;;;1.80;;
17763;SDS011;22245;52.832;13.816;2022-10-16T11:41:59;2.08;;;1.60;;
17763;SDS011;22245;52.832;13.816;2022-10-16T11:45:26;2.75;;;1.40;;
17763;SDS011;22245;52.832;13.816;2022-10-16T11:48:55;3.17;;;1.80;;
17763;SDS011;22245;52.832;13.816;2022-10-16T11:52:25;1.42;;;1.25;;
17763;SDS011;22245;52.832;13.816;2022-10-16T11:55:51;2.10;;;1.40;;
17763;SDS011;22245;52.832;13.816;2022-10-16T11:59:16;2.92;;;1.60;;
17763;SDS011;22245;52.832;13.816;2022-10-16T12:02:49;5.10;;;2.13;;
17763;SDS011;22245;52.832;13.816;2022-10-16T12:06:21;3.70;;;1.50;;
17763;SDS011;22245;52.832;13.816;2022-10-16T12:09:48;1.48;;;1.30;;
17763;SDS011;22245;52.832;13.816;2022-10-16T12:16:52;3.33;;;1.30;;
17763;SDS011;22245;52.832;13.816;2022-10-16T12:20:24;2.80;;;1.20;;
17763;SDS011;22245;52.832;13.816;2022-10-16T12:23:47;1.50;;;1.40;;
17763;SDS011;22245;52.832;13.816;2022-10-16T12:27:20;1.85;;;1.17;;
17763;SDS011;22245;52.832;13.816;2022-10-16T12:30:52;2.15;;;1.17;;
17763;SDS011;22245;52.832;13.816;2022-10-16T12:34:20;1.67;;;1.35;;
17763;SDS011;22245;52.832;13.816;2022-10-16T12:37:44;2.60;;;1.00;;
17763;SDS011;22245;52.832;13.816;2022-10-16T12:41:07;5.05;;;1.17;;
17763;SDS011;22245;52.832;13.816;2022-10-16T12:44:34;1.80;;;1.20;;
17763;SDS011;22245;52.832;13.816;2022-10-16T12:47:57;4.57;;;1.30;;
17763;SDS011;22245;52.832;13.816;2022-10-16T12:51:24;1.48;;;1.05;;
17763;SDS011;22245;52.832;13.816;2022-10-16T12:54:55;2.78;;;1.13;;
17763;SDS011;22245;52.832;13.816;2022-10-16T13:06:08;2.65;;;1.20;;
17763;SDS011;22245;52.832;13.816;2022-10-16T13:09:42;3.78;;;1.30;;
17763;SDS011;22245;52.832;13.816;2022-10-16T13:13:21;1.60;;;1.10;;
17763;SDS011;22245;52.832;13.816;2022-10-16T13:17:05;1.70;;;1.20;;
17763;SDS011;22245;52.832;13.816;2022-10-16T13:20:40;1.45;;;1.10;;
17763;SDS011;22245;52.832;13.816;2022-10-16T13:24:19;7.15;;;1.73;;
17763;SDS011;22245;52.832;13.816;2022-10-16T13:27:56;1.88;;;1.17;;
17763;SDS011;22245;52.832;13.816;2022-10-16T13:31:27;2.28;;;1.23;;
17763;SDS011;22245;52.832;13.816;2022-10-16T13:34:49;3.03;;;1.08;;
17763;SDS011;22245;52.832;13.816;2022-10-16T13:38:12;1.10;;;1.00;;
17763;SDS011;22245;52.832;13.816;2022-10-16T13:41:35;1.27;;;1.08;;
17763;SDS011;22245;52.832;13.816;2022-10-16T13:44:58;3.67;;;1.08;;
17763;SDS011;22245;52.832;13.816;2022-10-16T13:48:19;4.78;;;1.50;;
17763;SDS011;22245;52.832;13.816;2022-10-16T13:51:41;1.98;;;1.27;;
17763;SDS011;22245;52.832;13.816;2022-10-16T13:55:15;1.98;;;1.23;;
17763;SDS011;22245;52.832;13.816;2022-10-16T13:58:39;2.55;;;1.48;;
17763;SDS011;22245;52.832;13.816;2022-10-16T14:02:05;1.75;;;1.33;;
17763;SDS011;22245;52.832;13.816;2022-10-16T14:05:41;1.85;;;1.30;;
17763;SDS011;22245;52.832;13.816;2022-10-16T14:09:07;1.85;;;1.08;;
17763;SDS011;22245;52.832;13.816;2022-10-16T14:12:31;3.42;;;1.20;;
17763;SDS011;22245;52.832;13.816;2022-10-16T14:15:53;1.27;;;1.10;;
17763;SDS011;22245;52.832;13.816;2022-10-16T14:19:20;4.80;;;1.30;;
17763;SDS011;22245;52.832;13.816;2022-10-16T14:22:45;1.77;;;1.13;;
17763;SDS011;22245;52.832;13.816;2022-10-16T14:26:14;2.72;;;1.25;;
17763;SDS011;22245;52.832;13.816;2022-10-16T14:29:38;1.42;;;1.20;;
17763;SDS011;22245;52.832;13.816;2022-10-16T14:33:00;1.63;;;0.90;;
17763;SDS011;22245;52.832;13.816;2022-10-16T14:36:25;5.03;;;1.30;;
17763;SDS011;22245;52.832;13.816;2022-10-16T14:39:48;2.33;;;1.00;;
17763;SDS011;22245;52.832;13.816;2022-10-16T14:43:14;3.60;;;0.95;;
17763;SDS011;22245;52.832;13.816;2022-10-16T14:46:41;1.83;;;0.88;;
17763;SDS011;22245;52.832;13.816;2022-10-16T14:50:04;3.30;;;1.00;;
17763;SDS011;22245;52.832;13.816;2022-10-16T14:53:30;1.00;;;0.73;;
17763;SDS011;22245;52.832;13.816;2022-10-16T14:56:52;2.80;;;0.90;;
17763;SDS011;22245;52.832;13.816;2022-10-16T15:00:16;0.70;;;0.65;;
17763;SDS011;22245;52.832;13.816;2022-10-16T15:03:39;3.67;;;1.10;;
17763;SDS011;22245;52.832;13.816;2022-10-16T15:07:01;1.33;;;0.82;;
17763;SDS011;22245;52.832;13.816;2022-10-16T15:10:25;1.83;;;0.70;;
17763;SDS011;22245;52.832;13.816;2022-10-16T15:13:48;3.00;;;0.85;;
17763;SDS011;22245;52.832;13.816;2022-10-16T15:17:10;2.05;;;0.80;;
17763;SDS011;22245;52.832;13.816;2022-10-16T15:20:36;1.95;;;1.05;;
17763;SDS011;22245;52.832;13.816;2022-10-16T15:23:59;2.28;;;1.30;;
17763;SDS011;22245;52.832;13.816;2022-10-16T15:27:22;1.40;;;1.30;;
17763;SDS011;22245;52.832;13.816;2022-10-16T15:30:45;4.38;;;1.40;;
17763;SDS011;22245;52.832;13.816;2022-10-16T15:34:08;3.80;;;1.02;;
17763;SDS011;22245;52.832;13.816;2022-10-16T15:37:29;1.85;;;1.00;;
17763;SDS011;22245;52.832;13.816;2022-10-16T15:40:51;4.00;;;1.23;;
17763;SDS011;22245;52.832;13.816;2022-10-16T15:44:14;8.60;;;1.38;;
17763;SDS011;22245;52.832;13.816;2022-10-16T15:47:36;5.80;;;1.80;;
17763;SDS011;22245;52.832;13.816;2022-10-16T15:51:04;6.28;;;1.40;;
17763;SDS011;22245;52.832;13.816;2022-10-16T15:54:27;6.57;;;1.60;;
17763;SDS011;22245;52.832;13.816;2022-10-16T15:57:48;5.75;;;1.27;;
17763;SDS011;22245;52.832;13.816;2022-10-16T16:01:11;5.07;;;1.90;;
17763;SDS011;22245;52.832;13.816;2022-10-16T16:04:33;8.95;;;1.40;;
17763;SDS011;22245;52.832;13.816;2022-10-16T16:08:03;8.07;;;1.90;;
17763;SDS011;22245;52.832;13.816;2022-10-16T16:11:25;8.32;;;2.45;;
17763;SDS011;22245;52.832;13.816;2022-10-16T16:14:47;16.02;;;1.60;;
17763;SDS011;22245;52.832;13.816;2022-10-16T16:18:10;7.13;;;1.48;;
17763;SDS011;22245;52.832;13.816;2022-10-16T16:21:32;7.55;;;1.55;;
17763;SDS011;22245;52.832;13.816;2022-10-16T16:24:54;17.20;;;1.45;;
17763;SDS011;22245;52.832;13.816;2022-10-16T16:28:15;9.75;;;1.50;;
17763;SDS011;22245;52.832;13.816;2022-10-16T16:31:37;8.38;;;1.75;;
17763;SDS011;22245;52.832;13.816;2022-10-16T16:35:00;10.95;;;1.65;;
17763;SDS011;22245;52.832;13.816;2022-10-16T16:38:22;14.50;;;2.20;;
17763;SDS011;22245;52.832;13.816;2022-10-16T16:41:44;11.65;;;1.83;;
17763;SDS011;22245;52.832;13.816;2022-10-16T16:45:06;16.20;;;1.73;;
17763;SDS011;22245;52.832;13.816;2022-10-16T16:48:29;14.38;;;1.98;;
17763;SDS011;22245;52.832;13.816;2022-10-16T16:51:53;6.40;;;1.70;;
17763;SDS011;22245;52.832;13.816;2022-10-16T16:55:15;18.38;;;2.40;;
17763;SDS011;22245;52.832;13.816;2022-10-16T16:58:36;18.08;;;2.45;;
17763;SDS011;22245;52.832;13.816;2022-10-16T17:01:58;22.55;;;2.90;;
17763;SDS011;22245;52.832;13.816;2022-10-16T17:05:21;22.75;;;3.47;;
17763;SDS011;22245;52.832;13.816;2022-10-16T17:08:44;13.98;;;2.50;;
17763;SDS011;22245;52.832;13.816;2022-10-16T17:12:06;23.63;;;2.83;;
17763;SDS011;22245;52.832;13.816;2022-10-16T17:15:28;9.25;;;2.45;;
17763;SDS011;22245;52.832;13.816;2022-10-16T17:18:50;14.05;;;3.10;;
17763;SDS011;22245;52.832;13.816;2022-10-16T17:22:12;10.55;;;3.65;;
17763;SDS011;22245;52.832;13.816;2022-10-16T17:25:36;28.08;;;4.18;;
17763;SDS011;22245;52.832;13.816;2022-10-16T17:28:59;14.82;;;4.00;;
17763;SDS011;22245;52.832;13.816;2022-10-16T17:32:22;20.80;;;4.53;;
17763;SDS011;22245;52.832;13.816;2022-10-16T17:35:45;24.08;;;5.72;;
17763;SDS011;22245;52.832;13.816;2022-10-16T17:39:09;21.98;;;6.10;;
17763;SDS011;22245;52.832;13.816;2022-10-16T17:42:34;23.90;;;7.35;;
17763;SDS011;22245;52.832;13.816;2022-10-16T17:45:56;24.63;;;10.23;;
17763;SDS011;22245;52.832;13.816;2022-10-16T17:49:17;25.83;;;10.40;;
17763;SDS011;22245;52.832;13.816;2022-10-16T17:52:39;37.10;;;17.63;;
17763;SDS011;22245;52.832;13.816;2022-10-16T17:56:04;24.60;;;13.52;;
17763;SDS011;22245;52.832;13.816;2022-10-16T17:59:27;30.30;;;10.48;;
17763;SDS011;22245;52.832;13.816;2022-10-16T18:02:49;24.23;;;9.45;;
17763;SDS011;22245;52.832;13.816;2022-10-16T18:06:10;20.48;;;8.43;;
17763;SDS011;22245;52.832;13.816;2022-10-16T18:09:32;21.98;;;7.55;;
17763;SDS011;22245;52.832;13.816;2022-10-16T18:13:15;22.10;;;7.95;;
17763;SDS011;22245;52.832;13.816;2022-10-16T18:16:39;20.25;;;7.65;;
17763;SDS011;22245;52.832;13.816;2022-10-16T18:20:03;24.55;;;7.28;;
17763;SDS011;22245;52.832;13.816;2022-10-16T18:23:27;13.70;;;7.03;;
17763;SDS011;22245;52.832;13.816;2022-10-16T18:26:49;17.05;;;6.50;;
17763;SDS011;22245;52.832;13.816;2022-10-16T18:30:15;14.20;;;7.47;;
17763;SDS011;22245;52.832;13.816;2022-10-16T18:33:38;16.52;;;7.55;;
17763;SDS011;22245;52.832;13.816;2022-10-16T18:37:00;18.85;;;6.50;;
17763;SDS011;22245;52.832;13.816;2022-10-16T18:40:22;28.63;;;7.25;;
17763;SDS011;22245;52.832;13.816;2022-10-16T18:43:44;23.58;;;7.93;;
17763;SDS011;22245;52.832;13.816;2022-10-16T18:47:06;25.40;;;8.45;;
17763;SDS011;22245;52.832;13.816;2022-10-16T18:50:29;19.98;;;8.75;;
17763;SDS011;22245;52.832;13.816;2022-10-16T18:54:09;21.40;;;9.38;;
17763;SDS011;22245;52.832;13.816;2022-10-16T18:58:57;26.92;;;11.40;;
17763;SDS011;22245;52.832;13.816;2022-10-16T19:02:20;31.33;;;11.48;;
17763;SDS011;22245;52.832;13.816;2022-10-16T19:05:44;20.80;;;10.25;;
17763;SDS011;22245;52.832;13.816;2022-10-16T19:09:06;23.73;;;10.98;;
17763;SDS011;22245;52.832;13.816;2022-10-16T19:12:30;24.23;;;9.95;;
17763;SDS011;22245;52.832;13.816;2022-10-16T19:15:52;25.73;;;10.30;;
17763;SDS011;22245;52.832;13.816;2022-10-16T19:19:23;16.38;;;9.38;;
17763;SDS011;22245;52.832;13.816;2022-10-16T19:23:24;20.98;;;10.77;;
17763;SDS011;22245;52.832;13.816;2022-10-16T19:26:46;29.35;;;11.45;;
17763;SDS011;22245;52.832;13.816;2022-10-16T19:30:08;26.05;;;10.98;;
17763;SDS011;22245;52.832;13.816;2022-10-16T19:33:36;25.60;;;9.73;;
17763;SDS011;22245;52.832;13.816;2022-10-16T19:36:58;18.73;;;9.77;;
17763;SDS011;22245;52.832;13.816;2022-10-16T19:40:29;23.67;;;10.75;;
17763;SDS011;22245;52.832;13.816;2022-10-16T19:44:04;22.98;;;10.00;;
17763;SDS011;22245;52.832;13.816;2022-10-16T19:47:59;22.95;;;10.13;;
17763;SDS011;22245;52.832;13.816;2022-10-16T19:52:06;19.63;;;9.45;;
17763;SDS011;22245;52.832;13.816;2022-10-16T19:55:31;20.63;;;9.50;;
17763;SDS011;22245;52.832;13.816;2022-10-16T19:58:55;17.25;;;9.15;;
17763;SDS011;22245;52.832;13.816;2022-10-16T20:02:18;21.17;;;9.13;;
17763;SDS011;22245;52.832;13.816;2022-10-16T20:05:48;17.92;;;8.23;;
17763;SDS011;22245;52.832;13.816;2022-10-16T20:09:11;15.43;;;8.77;;
17763;SDS011;22245;52.832;13.816;2022-10-16T20:12:34;15.35;;;9.82;;
17763;SDS011;22245;52.832;13.816;2022-10-16T20:15:55;20.60;;;9.35;;
17763;SDS011;22245;52.832;13.816;2022-10-16T20:19:17;18.55;;;9.23;;
17763;SDS011;22245;52.832;13.816;2022-10-16T20:22:40;21.48;;;10.43;;
17763;SDS011;22245;52.832;13.816;2022-10-16T20:26:02;17.10;;;9.63;;
17763;SDS011;22245;52.832;13.816;2022-10-16T20:29:27;16.58;;;8.70;;